Accueil
METAR-TAF:

METAR-TAF

Aéroports :

Aéroport de Saint-Yan

Saint-Yan, France

latitude: 46-24-45N, longitude: 004-00-48E, altitude: 244 m

Observation

Le bulletin a été fait il y a 25 minutes, à 18:30 UTC
Vent calme
Température 12°C
Humidité 82%
Pression 1026 hPa
Visibilité: 8000 m

METAR: LFLN 201830Z AUTO 00000KT 8000 NSC 12/09 Q1026 NOSIG

Heure: 20:55 (18:55 UTC)

Prévision

Le bulletin a été fait il y a 1 heure et 55 minutes, à 17:00 UTC
Prévision valable du 20 à 18 UTC au 21 à 03 UTC
Vent 3 kt de direction variable
Visibilité: 8000 m
Evoluant progressivement
du 20 à 21 UTC au 20 à 24 UTC
Visibilité: 1500 m
brume
Probabilité 40% :
Temporairement
du 20 à 21 UTC au 20 à 24 UTC
Visibilité: 0500 m
bancs de brouillard
Probabilité 30% :
Temporairement
du 21 à 00 UTC au 21 à 03 UTC

TAF: LFLN 201700Z 2018/2103 VRB03KT 8000 NSC BECMG 2021/2024 1500 BR PROB40 TEMPO 2021/2024 0500 BCFG PROB30 TEMPO 2100/2103 VV///

Observations et prévisions météorologiques de plus de 4000 aéroports (messages METAR et TAF).

Les stations disponibles sont représentées par des disques jaunes et rouges sur la carte.

Passer la souris dessus pour voir le nom de la station.

Cliquer dessus pour voir les observations et prévisions météorologiques.

Pour changer de carte: cliquez sur les boutons verts avec une croix noire pour zoomer, sur le bouton vert avec un tiret pour effectuer un zoom arrière, ou sur les flèches vertes pour les cartes adjacentes.


METAR-TAF: